createdAt,value
2023-07-16T00:01:59.782Z,17.69
2023-07-16T00:06:01.652Z,17.67
2023-07-16T00:10:03.812Z,17.67
2023-07-16T00:14:06.335Z,17.67
2023-07-16T00:18:08.213Z,17.67
2023-07-16T00:22:10.145Z,17.68
2023-07-16T00:26:15.207Z,17.67
2023-07-16T00:30:17.364Z,17.67
2023-07-16T00:34:19.286Z,17.65
2023-07-16T00:38:21.406Z,17.65
2023-07-16T00:42:23.269Z,17.65
2023-07-16T00:46:26.172Z,17.62
2023-07-16T00:50:28.945Z,17.62
2023-07-16T00:54:34.002Z,17.62
2023-07-16T00:58:36.303Z,17.61
2023-07-16T01:02:38.626Z,17.59
2023-07-16T01:06:49.342Z,17.58
2023-07-16T01:10:51.442Z,17.62
2023-07-16T01:14:53.894Z,17.62
2023-07-16T01:18:55.714Z,17.60
2023-07-16T01:23:20.396Z,17.59
2023-07-16T01:27:53.290Z,17.56
2023-07-16T01:31:57.122Z,17.51
2023-07-16T01:36:00.656Z,17.50
2023-07-16T01:40:04.653Z,17.47
2023-07-16T01:44:06.574Z,17.45
2023-07-16T01:48:25.613Z,17.44
2023-07-16T01:52:28.572Z,17.44
2023-07-16T01:56:32.172Z,17.44
2023-07-16T02:00:34.090Z,17.45
2023-07-16T02:04:35.986Z,17.44
2023-07-16T02:08:37.821Z,17.43
2023-07-16T02:12:39.765Z,17.44
2023-07-16T02:16:41.841Z,17.44
2023-07-16T02:20:45.200Z,17.46
2023-07-16T02:24:47.088Z,17.45
2023-07-16T02:28:49.236Z,17.46
2023-07-16T02:32:51.287Z,17.46
2023-07-16T02:36:53.281Z,17.42
2023-07-16T02:40:55.536Z,17.40
2023-07-16T02:44:57.452Z,17.36
2023-07-16T02:48:59.439Z,17.33
2023-07-16T02:53:01.272Z,17.31
2023-07-16T02:57:03.555Z,17.33
2023-07-16T03:01:05.468Z,17.34
2023-07-16T03:05:07.524Z,17.34
2023-07-16T03:09:10.349Z,17.33
2023-07-16T03:13:12.205Z,17.30
2023-07-16T03:17:14.681Z,17.29
2023-07-16T03:21:16.707Z,17.25
2023-07-16T03:25:19.378Z,17.22
2023-07-16T03:29:21.363Z,17.19
2023-07-16T03:33:23.453Z,17.16
2023-07-16T03:37:25.473Z,17.14
2023-07-16T03:41:27.560Z,17.13
2023-07-16T03:45:29.545Z,17.13
2023-07-16T03:49:31.447Z,17.14
2023-07-16T03:53:33.318Z,17.16
2023-07-16T03:57:35.158Z,17.19
2023-07-16T04:01:37.077Z,17.16
2023-07-16T04:05:38.997Z,17.12
2023-07-16T04:09:41.950Z,17.13
2023-07-16T04:13:43.890Z,17.12
2023-07-16T04:17:45.771Z,17.14
2023-07-16T04:21:47.641Z,17.14
2023-07-16T04:25:54.333Z,17.15
2023-07-16T04:29:56.264Z,17.22
2023-07-16T04:33:58.235Z,17.24
2023-07-16T04:38:00.136Z,17.31
2023-07-16T04:42:02.022Z,17.36
2023-07-16T04:46:04.247Z,17.36
2023-07-16T04:50:07.276Z,17.37
2023-07-16T04:54:09.161Z,17.31
2023-07-16T04:58:13.041Z,17.29
2023-07-16T05:02:16.730Z,17.32
2023-07-16T05:06:18.883Z,17.34
2023-07-16T05:10:20.960Z,17.38
2023-07-16T05:14:22.828Z,17.52
2023-07-16T05:18:24.882Z,17.59
2023-07-16T05:22:26.754Z,17.68
2023-07-16T05:26:28.657Z,17.85
2023-07-16T05:30:30.486Z,17.99
2023-07-16T05:34:32.351Z,18.11
2023-07-16T05:38:34.146Z,18.21
2023-07-16T05:42:36.517Z,18.22
2023-07-16T05:46:38.493Z,18.35
2023-07-16T05:50:40.382Z,18.42
2023-07-16T05:54:45.138Z,18.32
2023-07-16T05:58:47.041Z,18.26
2023-07-16T06:02:48.868Z,18.22
2023-07-16T06:06:53.018Z,18.17
2023-07-16T06:10:55.173Z,18.23
2023-07-16T06:14:57.008Z,18.31
2023-07-16T06:18:58.928Z,18.37
2023-07-16T06:23:00.996Z,18.29
2023-07-16T06:27:03.030Z,18.37
2023-07-16T06:31:04.942Z,18.46
2023-07-16T06:35:07.104Z,18.44
2023-07-16T06:39:08.989Z,18.41
2023-07-16T06:43:10.818Z,18.44
2023-07-16T06:47:12.774Z,18.45
2023-07-16T06:51:14.689Z,18.35
2023-07-16T06:55:16.540Z,18.39
2023-07-16T06:59:18.417Z,18.47
2023-07-16T07:03:20.274Z,18.45
2023-07-16T07:07:22.219Z,18.42
2023-07-16T07:11:24.093Z,18.52
2023-07-16T07:15:25.915Z,18.57
2023-07-16T07:19:28.458Z,18.68
2023-07-16T07:23:30.456Z,18.63
2023-07-16T07:27:32.600Z,18.61
2023-07-16T07:31:34.522Z,18.72
2023-07-16T07:35:36.425Z,18.72
2023-07-16T07:39:38.510Z,18.63
2023-07-16T07:43:40.341Z,18.54
2023-07-16T07:47:42.896Z,18.50
2023-07-16T07:51:44.825Z,18.45
2023-07-16T07:55:47.224Z,18.50
2023-07-16T07:59:49.161Z,18.64
2023-07-16T08:03:51.071Z,18.63
2023-07-16T08:07:53.616Z,18.77
2023-07-16T08:11:55.578Z,18.90
2023-07-16T08:15:57.458Z,18.92
2023-07-16T08:19:59.427Z,18.95
2023-07-16T08:24:01.281Z,18.93
2023-07-16T08:28:06.395Z,18.77
2023-07-16T08:32:08.885Z,18.73
2023-07-16T08:36:11.514Z,18.74
2023-07-16T08:40:14.304Z,18.81
2023-07-16T08:44:16.765Z,18.83
2023-07-16T08:48:21.553Z,18.90
2023-07-16T08:52:24.194Z,18.94
2023-07-16T08:56:26.464Z,18.97
2023-07-16T09:00:28.662Z,18.98
2023-07-16T09:04:31.193Z,18.97
2023-07-16T09:08:33.090Z,18.94
2023-07-16T09:12:34.951Z,19.07
2023-07-16T09:16:36.789Z,19.19
2023-07-16T09:20:40.947Z,19.12
2023-07-16T09:24:48.598Z,19.13
2023-07-16T09:28:50.690Z,19.07
2023-07-16T09:32:52.823Z,19.07
2023-07-16T09:36:54.720Z,19.07
2023-07-16T09:40:57.749Z,19.01
2023-07-16T09:45:01.989Z,18.99
2023-07-16T09:49:04.026Z,18.98
2023-07-16T09:53:06.339Z,18.97
2023-07-16T09:57:10.002Z,19.01
2023-07-16T10:01:12.468Z,19.08
2023-07-16T10:05:19.160Z,19.30
2023-07-16T10:09:43.621Z,19.49
2023-07-16T10:13:51.983Z,19.58
2023-07-16T10:17:54.291Z,19.58
2023-07-16T10:21:56.148Z,19.66
2023-07-16T10:26:02.311Z,19.76
2023-07-16T10:30:07.533Z,19.82
2023-07-16T10:34:10.149Z,19.85
2023-07-16T10:38:13.937Z,20.00
2023-07-16T10:42:18.777Z,20.12
2023-07-16T10:46:21.988Z,20.14
2023-07-16T10:50:24.167Z,20.22
2023-07-16T10:54:28.871Z,20.25
2023-07-16T10:58:30.752Z,20.25
2023-07-16T11:02:32.711Z,20.41
2023-07-16T11:06:34.707Z,20.62
2023-07-16T11:10:36.589Z,20.78
2023-07-16T11:14:39.331Z,20.87
2023-07-16T11:18:43.311Z,20.82
2023-07-16T11:22:48.150Z,20.63
2023-07-16T11:26:53.671Z,20.51
2023-07-16T11:30:55.636Z,20.54
2023-07-16T11:34:58.593Z,20.51
2023-07-16T11:39:00.812Z,20.56
2023-07-16T11:43:28.688Z,20.60
2023-07-16T11:47:31.043Z,20.67
2023-07-16T11:51:32.999Z,20.74
2023-07-16T11:55:35.005Z,20.81
2023-07-16T11:59:36.915Z,20.85
2023-07-16T12:03:38.803Z,20.83
2023-07-16T12:07:40.888Z,20.72
2023-07-16T12:11:42.721Z,20.85
2023-07-16T12:15:44.675Z,20.98
2023-07-16T12:19:46.507Z,21.22
2023-07-16T12:23:48.323Z,21.46
2023-07-16T12:27:53.775Z,21.46
2023-07-16T12:31:57.735Z,21.35
2023-07-16T12:35:59.558Z,21.28
2023-07-16T12:40:03.577Z,21.09
2023-07-16T12:44:05.457Z,20.99
2023-07-16T12:48:07.496Z,20.98
2023-07-16T12:52:09.739Z,21.10
2023-07-16T12:56:11.594Z,21.13
2023-07-16T13:00:13.685Z,21.20
2023-07-16T13:04:15.514Z,21.28
2023-07-16T13:08:20.304Z,21.50
2023-07-16T13:12:22.163Z,21.50
2023-07-16T13:16:24.122Z,21.47
2023-07-16T13:20:26.126Z,21.49
2023-07-16T13:24:28.017Z,21.44
2023-07-16T13:28:29.892Z,21.52
2023-07-16T13:32:31.860Z,21.43
2023-07-16T13:36:33.849Z,21.42
2023-07-16T13:40:35.681Z,21.55
2023-07-16T13:44:37.509Z,21.65
2023-07-16T13:48:55.847Z,21.88
2023-07-16T13:52:58.246Z,22.02
2023-07-16T13:57:00.164Z,21.97
2023-07-16T14:01:02.117Z,22.00
2023-07-16T14:05:04.177Z,21.84
2023-07-16T14:09:06.607Z,21.82
2023-07-16T14:13:08.465Z,21.83
2023-07-16T14:17:10.410Z,21.87
2023-07-16T14:21:12.367Z,21.98
2023-07-16T14:25:14.264Z,22.02
2023-07-16T14:29:16.555Z,21.99
2023-07-16T14:33:25.104Z,22.01
2023-07-16T14:37:27.077Z,21.87
2023-07-16T14:41:28.970Z,21.81
2023-07-16T14:45:30.984Z,21.81
2023-07-16T14:49:33.060Z,21.75
2023-07-16T14:53:34.871Z,21.65
2023-07-16T14:57:36.989Z,21.67
2023-07-16T15:01:40.316Z,21.75
2023-07-16T15:05:42.374Z,21.77
2023-07-16T15:09:44.188Z,21.69
2023-07-16T15:13:46.101Z,21.66
2023-07-16T15:17:47.979Z,21.74
2023-07-16T15:21:49.967Z,21.67
2023-07-16T15:25:51.928Z,21.71
2023-07-16T15:29:53.934Z,21.78
2023-07-16T15:33:56.570Z,21.75
2023-07-16T15:38:00.660Z,21.69
2023-07-16T15:42:02.859Z,21.76
2023-07-16T15:46:04.834Z,21.86
2023-07-16T15:50:07.084Z,21.95
2023-07-16T15:54:09.123Z,21.92
2023-07-16T15:58:10.970Z,21.85
2023-07-16T16:02:12.822Z,21.76
2023-07-16T16:06:14.939Z,21.74
2023-07-16T16:10:17.832Z,21.77
2023-07-16T16:14:19.697Z,21.71
2023-07-16T16:18:22.009Z,21.76
2023-07-16T16:22:23.972Z,21.84
2023-07-16T16:26:25.829Z,21.84
2023-07-16T16:30:27.798Z,21.80
2023-07-16T16:34:29.964Z,21.77
2023-07-16T16:38:31.821Z,21.77
2023-07-16T16:42:33.835Z,21.82
2023-07-16T16:46:35.870Z,21.77
2023-07-16T16:50:38.545Z,21.75
2023-07-16T16:54:40.755Z,21.69
2023-07-16T16:58:42.637Z,21.68
2023-07-16T17:02:44.757Z,21.61
2023-07-16T17:06:46.665Z,21.64
2023-07-16T17:10:48.575Z,21.68
2023-07-16T17:14:50.525Z,21.60
2023-07-16T17:18:52.662Z,21.68
2023-07-16T17:22:54.510Z,21.65
2023-07-16T17:26:56.511Z,21.61
2023-07-16T17:31:00.623Z,21.57
2023-07-16T17:35:02.835Z,21.51
2023-07-16T17:39:04.744Z,21.53
2023-07-16T17:43:06.640Z,21.55
2023-07-16T17:47:08.703Z,21.53
2023-07-16T17:51:10.700Z,21.48
2023-07-16T17:55:12.587Z,21.39
2023-07-16T17:59:14.753Z,21.21
2023-07-16T18:03:16.921Z,21.07
2023-07-16T18:07:22.824Z,20.95
2023-07-16T18:11:24.938Z,20.96
2023-07-16T18:15:26.852Z,20.97
2023-07-16T18:19:29.339Z,20.95
2023-07-16T18:23:31.697Z,20.92
2023-07-16T18:27:34.651Z,20.88
2023-07-16T18:31:36.602Z,20.81
2023-07-16T18:35:38.625Z,20.80
2023-07-16T18:39:40.538Z,20.77
2023-07-16T18:43:43.403Z,20.72
2023-07-16T18:47:45.345Z,20.65
2023-07-16T18:51:49.204Z,20.55
2023-07-16T18:55:51.039Z,20.46
2023-07-16T18:59:53.299Z,20.36
2023-07-16T19:03:55.663Z,20.26
2023-07-16T19:07:58.088Z,20.26
2023-07-16T19:11:59.945Z,20.23
2023-07-16T19:16:01.915Z,20.18
2023-07-16T19:20:05.551Z,20.14
2023-07-16T19:24:07.430Z,20.07
2023-07-16T19:28:09.739Z,20.03
2023-07-16T19:32:11.582Z,19.99
2023-07-16T19:36:14.972Z,19.95
2023-07-16T19:40:17.130Z,19.93
2023-07-16T19:44:18.920Z,19.90
2023-07-16T19:48:20.791Z,19.84
2023-07-16T19:52:22.603Z,19.76
2023-07-16T19:56:24.618Z,19.67
2023-07-16T20:00:28.362Z,19.66
2023-07-16T20:04:30.451Z,19.60
2023-07-16T20:08:32.381Z,19.60
2023-07-16T20:12:36.277Z,19.57
2023-07-16T20:16:40.519Z,19.53
2023-07-16T20:20:43.909Z,19.50
2023-07-16T20:24:45.721Z,19.45
2023-07-16T20:28:47.702Z,19.43
2023-07-16T20:32:49.599Z,19.38
2023-07-16T20:36:51.545Z,19.35
2023-07-16T20:40:53.404Z,19.31
2023-07-16T20:45:19.196Z,19.30
2023-07-16T20:49:21.091Z,19.27
2023-07-16T20:53:23.040Z,19.21
2023-07-16T20:57:24.865Z,19.16
2023-07-16T21:01:26.901Z,19.12
2023-07-16T21:05:29.660Z,19.06
2023-07-16T21:09:31.537Z,19.02
2023-07-16T21:13:33.492Z,19.00
2023-07-16T21:17:35.396Z,19.00
2023-07-16T21:21:37.291Z,19.00
2023-07-16T21:25:39.554Z,18.97
2023-07-16T21:29:41.380Z,18.94
2023-07-16T21:33:43.249Z,18.90
2023-07-16T21:37:45.240Z,18.89
2023-07-16T21:41:47.317Z,18.88
2023-07-16T21:45:49.219Z,18.87
2023-07-16T21:49:52.001Z,18.87
2023-07-16T21:53:53.837Z,18.81
2023-07-16T21:57:55.724Z,18.66
2023-07-16T22:01:58.112Z,18.49
2023-07-16T22:05:59.963Z,18.28
2023-07-16T22:10:01.838Z,18.14
2023-07-16T22:14:07.645Z,18.04
2023-07-16T22:18:09.627Z,17.79
2023-07-16T22:22:11.581Z,17.65
2023-07-16T22:26:14.029Z,17.58
2023-07-16T22:30:16.320Z,17.52
2023-07-16T22:34:18.242Z,17.52
2023-07-16T22:38:20.142Z,17.52
2023-07-16T22:42:22.425Z,17.52
2023-07-16T22:46:24.345Z,17.51
2023-07-16T22:50:26.258Z,17.53
2023-07-16T22:54:28.144Z,17.56
2023-07-16T22:58:30.012Z,17.55
2023-07-16T23:02:31.958Z,17.53
2023-07-16T23:06:34.033Z,17.50
2023-07-16T23:10:35.907Z,17.51
2023-07-16T23:14:41.503Z,17.49
2023-07-16T23:18:43.344Z,17.51
2023-07-16T23:22:45.257Z,17.48
2023-07-16T23:26:47.108Z,17.45
2023-07-16T23:30:49.041Z,17.39
2023-07-16T23:34:51.184Z,17.42
2023-07-16T23:38:53.016Z,17.44
2023-07-16T23:42:54.912Z,17.46
2023-07-16T23:46:57.983Z,17.44
2023-07-16T23:50:59.991Z,17.42
2023-07-16T23:55:04.366Z,17.39
2023-07-16T23:59:06.211Z,17.38
